Terminal Aerodrome Forecast
Issued by NWS

Home | Current Version | Previous Version | Graphics & Text | Print | Product List | Glossary On
Versions: 1 2 3 4 5 6 7 8 9 10 11 12 13 14 15 16
000
FTUS43 KGRB 161726
TAFAUW
TAF
KAUW 161726Z 1618/1718 VRB03KT 6SM HZ BKN150
     FM162200 09004KT P6SM -SN SCT030 OVC060
      TEMPO 1622/1701 3SM -SNPL BR BKN030
     FM170100 08005KT 3SM -SNPL BR OVC015
     FM170400 07004KT 1 1/2SM -FZRASN BR OVC004
     FM170800 03005KT 1 1/2SM -FZRAPL BR OVC004
     FM171500 36005KT 2SM -FZRASN BR OVC007=

USA.gov is the U.S. government's official web portal to all federal, state and local government web resources and services.